sensor_id;sensor_type;location;lat;lon;timestamp;pressure;altitude;pressure_sealevel;temperature;humidity
60307;BME280;46155;52.364;6.580;2023-05-10T03:03:14;100503.72;;;12.86;100.00
60307;BME280;46155;52.364;6.580;2023-05-10T03:05:40;100495.63;;;12.82;100.00
60307;BME280;46155;52.364;6.580;2023-05-10T03:08:05;100509.00;;;12.86;100.00
60307;BME280;46155;52.364;6.580;2023-05-10T03:10:32;100497.41;;;12.83;100.00
60307;BME280;46155;52.364;6.580;2023-05-10T03:13:10;100502.84;;;12.86;100.00
60307;BME280;46155;52.364;6.580;2023-05-10T03:15:55;100504.34;;;12.81;100.00
60307;BME280;46155;52.364;6.580;2023-05-10T03:18:28;100500.88;;;12.82;100.00
60307;BME280;46155;52.364;6.580;2023-05-10T03:20:59;100505.28;;;12.83;100.00
60307;BME280;46155;52.364;6.580;2023-05-10T03:23:30;100500.94;;;12.83;100.00
60307;BME280;46155;52.364;6.580;2023-05-10T03:25:59;100508.84;;;12.83;100.00
60307;BME280;46155;52.364;6.580;2023-05-10T03:28:25;100514.13;;;12.83;100.00
60307;BME280;46155;52.364;6.580;2023-05-10T03:30:52;100511.41;;;12.82;100.00
60307;BME280;46155;52.364;6.580;2023-05-10T03:33:18;100516.69;;;12.82;100.00
60307;BME280;46155;52.364;6.580;2023-05-10T03:35:43;100525.41;;;12.81;100.00
60307;BME280;46155;52.364;6.580;2023-05-10T03:38:11;100521.81;;;12.79;100.00
60307;BME280;46155;52.364;6.580;2023-05-10T03:40:36;100521.81;;;12.79;100.00
60307;BME280;46155;52.364;6.580;2023-05-10T03:43:02;100521.81;;;12.79;100.00
60307;BME280;46155;52.364;6.580;2023-05-10T03:45:27;100532.34;;;12.79;100.00
60307;BME280;46155;52.364;6.580;2023-05-10T03:47:53;100519.19;;;12.79;100.00
60307;BME280;46155;52.364;6.580;2023-05-10T03:50:19;100527.09;;;12.79;100.00
60307;BME280;46155;52.364;6.580;2023-05-10T03:52:44;100528.88;;;12.80;100.00
60307;BME280;46155;52.364;6.580;2023-05-10T03:55:10;100530.69;;;12.81;100.00
60307;BME280;46155;52.364;6.580;2023-05-10T03:57:35;100532.56;;;12.83;100.00
60307;BME280;46155;52.364;6.580;2023-05-10T04:00:02;100532.63;;;12.85;100.00
60307;BME280;46155;52.364;6.580;2023-05-10T04:02:27;100533.59;;;12.87;100.00
60307;BME280;46155;52.364;6.580;2023-05-10T04:04:53;100533.59;;;12.87;100.00
60307;BME280;46155;52.364;6.580;2023-05-10T04:07:18;100533.75;;;12.90;100.00
60307;BME280;46155;52.364;6.580;2023-05-10T04:09:43;100546.09;;;12.91;100.00
60307;BME280;46155;52.364;6.580;2023-05-10T04:12:09;100541.66;;;12.90;100.00
60307;BME280;46155;52.364;6.580;2023-05-10T04:14:34;100530.00;;;12.85;100.00
60307;BME280;46155;52.364;6.580;2023-05-10T04:17:00;100538.31;;;12.94;100.00
60307;BME280;46155;52.364;6.580;2023-05-10T04:19:31;100544.50;;;12.95;100.00
60307;BME280;46155;52.364;6.580;2023-05-10T04:21:57;100543.69;;;12.96;100.00
60307;BME280;46155;52.364;6.580;2023-05-10T04:24:22;100547.22;;;12.96;100.00
60307;BME280;46155;52.364;6.580;2023-05-10T04:26:48;100543.75;;;12.97;100.00
60307;BME280;46155;52.364;6.580;2023-05-10T04:29:13;100544.59;;;12.96;100.00
60307;BME280;46155;52.364;6.580;2023-05-10T04:31:38;100534.72;;;12.92;100.00
60307;BME280;46155;52.364;6.580;2023-05-10T04:34:04;100542.09;;;12.99;100.00
60307;BME280;46155;52.364;6.580;2023-05-10T04:36:29;100547.28;;;12.98;100.00
60307;BME280;46155;52.364;6.580;2023-05-10T04:38:54;100542.09;;;12.99;100.00
60307;BME280;46155;52.364;6.580;2023-05-10T04:41:20;100542.09;;;12.99;100.00
60307;BME280;46155;52.364;6.580;2023-05-10T04:43:46;100538.31;;;12.94;100.00
60307;BME280;46155;52.364;6.580;2023-05-10T04:46:11;100549.91;;;12.98;100.00
60307;BME280;46155;52.364;6.580;2023-05-10T04:48:37;100550.00;;;12.99;100.00
60307;BME280;46155;52.364;6.580;2023-05-10T04:51:02;100554.44;;;13.00;100.00
60307;BME280;46155;52.364;6.580;2023-05-10T04:53:29;100550.97;;;13.01;100.00
60307;BME280;46155;52.364;6.580;2023-05-10T04:55:54;100555.47;;;13.04;100.00
60307;BME280;46155;52.364;6.580;2023-05-10T04:58:19;100558.16;;;13.05;100.00
60307;BME280;46155;52.364;6.580;2023-05-10T05:00:45;100558.59;;;13.15;100.00
60307;BME280;46155;52.364;6.580;2023-05-10T05:03:10;100565.06;;;13.21;100.00
60307;BME280;46155;52.364;6.580;2023-05-10T05:05:35;100565.06;;;13.21;100.00
60307;BME280;46155;52.364;6.580;2023-05-10T05:08:01;100565.91;;;13.20;100.00
60307;BME280;46155;52.364;6.580;2023-05-10T05:10:26;100571.16;;;13.20;100.00
60307;BME280;46155;52.364;6.580;2023-05-10T05:12:51;100578.19;;;13.20;100.00
60307;BME280;46155;52.364;6.580;2023-05-10T05:15:17;100572.75;;;13.17;100.00
60307;BME280;46155;52.364;6.580;2023-05-10T05:17:43;100577.94;;;13.15;100.00
60307;BME280;46155;52.364;6.580;2023-05-10T05:20:09;100579.56;;;13.12;100.00
60307;BME280;46155;52.364;6.580;2023-05-10T05:22:36;100578.50;;;13.08;100.00
60307;BME280;46155;52.364;6.580;2023-05-10T05:25:01;100572.19;;;13.04;100.00
60307;BME280;46155;52.364;6.580;2023-05-10T05:27:28;100575.78;;;13.06;100.00
60307;BME280;46155;52.364;6.580;2023-05-10T05:29:57;100581.19;;;13.09;100.00
60307;BME280;46155;52.364;6.580;2023-05-10T05:32:23;100580.25;;;13.07;100.00
60307;BME280;46155;52.364;6.580;2023-05-10T05:34:49;100587.09;;;13.04;100.00
60307;BME280;46155;52.364;6.580;2023-05-10T05:37:15;100590.72;;;13.06;100.00
60307;BME280;46155;52.364;6.580;2023-05-10T05:39:42;100588.91;;;13.05;100.00
60307;BME280;46155;52.364;6.580;2023-05-10T05:42:11;100591.75;;;13.09;100.00
60307;BME280;46155;52.364;6.580;2023-05-10T05:44:37;100584.38;;;13.02;100.00
60307;BME280;46155;52.364;6.580;2023-05-10T05:47:03;100595.22;;;13.08;100.00
60307;BME280;46155;52.364;6.580;2023-05-10T05:49:29;100589.66;;;13.02;100.00
60307;BME280;46155;52.364;6.580;2023-05-10T05:51:58;100598.69;;;13.07;100.00
60307;BME280;46155;52.364;6.580;2023-05-10T05:54:23;100597.88;;;13.08;100.00
60307;BME280;46155;52.364;6.580;2023-05-10T05:56:49;100601.31;;;13.07;100.00
60307;BME280;46155;52.364;6.580;2023-05-10T05:59:14;100605.59;;;13.05;100.00
60307;BME280;46155;52.364;6.580;2023-05-10T06:01:39;100608.16;;;13.04;100.00
60307;BME280;46155;52.364;6.580;2023-05-10T06:04:05;100601.03;;;13.01;100.00
60307;BME280;46155;52.364;6.580;2023-05-10T06:06:30;100613.50;;;13.05;100.00
60307;BME280;46155;52.364;6.580;2023-05-10T06:08:57;100618.63;;;13.02;100.00
60307;BME280;46155;52.364;6.580;2023-05-10T06:11:22;100621.41;;;13.05;100.00
60307;BME280;46155;52.364;6.580;2023-05-10T06:13:48;100617.97;;;13.06;100.00
60307;BME280;46155;52.364;6.580;2023-05-10T06:16:13;100619.91;;;13.11;100.00
60307;BME280;46155;52.364;6.580;2023-05-10T06:18:38;100591.19;;;12.97;100.00
60307;BME280;46155;52.364;6.580;2023-05-10T06:21:04;100605.59;;;13.05;100.00
60307;BME280;46155;52.364;6.580;2023-05-10T06:23:29;100610.38;;;13.13;100.00
60307;BME280;46155;52.364;6.580;2023-05-10T06:25:54;100611.31;;;13.15;100.00
60307;BME280;46155;52.364;6.580;2023-05-10T06:28:20;100615.22;;;13.23;100.00
60307;BME280;46155;52.364;6.580;2023-05-10T06:30:46;100619.56;;;13.22;100.00
60307;BME280;46155;52.364;6.580;2023-05-10T06:33:11;100622.47;;;13.27;100.00
60307;BME280;46155;52.364;6.580;2023-05-10T06:35:36;100629.69;;;13.31;100.00
60307;BME280;46155;52.364;6.580;2023-05-10T06:38:02;100625.75;;;13.41;100.00
60307;BME280;46155;52.364;6.580;2023-05-10T06:40:27;100623.81;;;13.37;100.00
60307;BME280;46155;52.364;6.580;2023-05-10T06:42:52;100625.84;;;13.42;100.00
60307;BME280;46155;52.364;6.580;2023-05-10T06:45:18;100626.81;;;13.45;100.00
60307;BME280;46155;52.364;6.580;2023-05-10T06:47:43;100624.22;;;13.46;100.00
60307;BME280;46155;52.364;6.580;2023-05-10T06:50:09;100621.41;;;13.41;100.00
60307;BME280;46155;52.364;6.580;2023-05-10T06:52:34;100631.94;;;13.41;100.00
60307;BME280;46155;52.364;6.580;2023-05-10T06:55:00;100638.94;;;13.41;100.00
60307;BME280;46155;52.364;6.580;2023-05-10T06:57:25;100641.28;;;13.35;100.00
60307;BME280;46155;52.364;6.580;2023-05-10T06:59:51;100644.66;;;13.32;100.00
60307;BME280;46155;52.364;6.580;2023-05-10T07:02:17;100651.34;;;13.43;100.00
60307;BME280;46155;52.364;6.580;2023-05-10T07:04:43;100645.34;;;13.66;100.00
60307;BME280;46155;52.364;6.580;2023-05-10T07:07:08;100646.25;;;13.86;100.00
60307;BME280;46155;52.364;6.580;2023-05-10T07:09:34;100639.31;;;13.88;100.00
60307;BME280;46155;52.364;6.580;2023-05-10T07:11:59;100654.03;;;14.02;100.00
60307;BME280;46155;52.364;6.580;2023-05-10T07:14:24;100653.72;;;14.16;100.00
60307;BME280;46155;52.364;6.580;2023-05-10T07:16:50;100654.19;;;14.26;100.00
60307;BME280;46155;52.364;6.580;2023-05-10T07:19:16;100649.56;;;14.21;100.00
60307;BME280;46155;52.364;6.580;2023-05-10T07:21:41;100658.75;;;14.09;100.00
60307;BME280;46155;52.364;6.580;2023-05-10T07:24:08;100666.22;;;14.00;100.00
60307;BME280;46155;52.364;6.580;2023-05-10T07:26:33;100672.28;;;13.98;100.00
60307;BME280;46155;52.364;6.580;2023-05-10T07:28:59;100662.09;;;13.86;100.00
60307;BME280;46155;52.364;6.580;2023-05-10T07:31:24;100674.31;;;13.84;100.00
60307;BME280;46155;52.364;6.580;2023-05-10T07:33:50;100675.91;;;13.80;100.00
60307;BME280;46155;52.364;6.580;2023-05-10T07:36:15;100683.53;;;13.74;100.00
60307;BME280;46155;52.364;6.580;2023-05-10T07:38:40;100673.47;;;13.65;100.00
60307;BME280;46155;52.364;6.580;2023-05-10T07:41:05;100687.19;;;13.58;100.00
60307;BME280;46155;52.364;6.580;2023-05-10T07:43:31;100683.38;;;13.51;100.00
60307;BME280;46155;52.364;6.580;2023-05-10T07:45:56;100682.19;;;13.45;100.00
60307;BME280;46155;52.364;6.580;2023-05-10T07:48:22;100684.81;;;13.45;100.00
60307;BME280;46155;52.364;6.580;2023-05-10T07:50:48;100691.06;;;13.47;100.00
60307;BME280;46155;52.364;6.580;2023-05-10T07:53:13;100686.09;;;13.53;100.00
60307;BME280;46155;52.364;6.580;2023-05-10T07:55:38;100691.56;;;13.57;100.00
60307;BME280;46155;52.364;6.580;2023-05-10T07:58:03;100697.84;;;13.59;100.00
60307;BME280;46155;52.364;6.580;2023-05-10T08:00:29;100695.19;;;13.59;100.00
60307;BME280;46155;52.364;6.580;2023-05-10T08:02:54;100698.34;;;13.52;100.00
60307;BME280;46155;52.364;6.580;2023-05-10T08:05:20;100701.53;;;13.45;100.00
60307;BME280;46155;52.364;6.580;2023-05-10T08:07:45;100698.97;;;13.47;100.00
60307;BME280;46155;52.364;6.580;2023-05-10T08:10:10;100691.59;;;13.39;100.00
60307;BME280;46155;52.364;6.580;2023-05-10T08:12:36;100715.72;;;13.47;100.00
60307;BME280;46155;52.364;6.580;2023-05-10T08:15:02;100717.53;;;13.48;100.00
60307;BME280;46155;52.364;6.580;2023-05-10T08:17:27;100719.09;;;13.45;100.00
60307;BME280;46155;52.364;6.580;2023-05-10T08:19:52;100708.00;;;13.34;100.00
60307;BME280;46155;52.364;6.580;2023-05-10T08:22:18;100724.44;;;13.46;100.00
60307;BME280;46155;52.364;6.580;2023-05-10T08:24:43;100709.03;;;13.36;100.00
60307;BME280;46155;52.364;6.580;2023-05-10T08:27:08;100729.38;;;13.38;100.00
60307;BME280;46155;52.364;6.580;2023-05-10T08:29:34;100731.81;;;13.35;100.00
60307;BME280;46155;52.364;6.580;2023-05-10T08:31:59;100720.88;;;13.27;100.00
60307;BME280;46155;52.364;6.580;2023-05-10T08:34:26;100737.00;;;13.34;100.00
60307;BME280;46155;52.364;6.580;2023-05-10T08:36:51;100742.06;;;13.29;100.00
60307;BME280;46155;52.364;6.580;2023-05-10T08:39:17;100743.50;;;13.40;100.00
60307;BME280;46155;52.364;6.580;2023-05-10T08:41:44;100735.88;;;13.47;100.00
60307;BME280;46155;52.364;6.580;2023-05-10T08:44:10;100736.06;;;13.50;100.00
60307;BME280;46155;52.364;6.580;2023-05-10T08:46:37;100742.50;;;13.56;100.00
60307;BME280;46155;52.364;6.580;2023-05-10T08:49:06;100741.63;;;13.56;100.00
60307;BME280;46155;52.364;6.580;2023-05-10T08:51:35;100740.94;;;13.60;100.00
60307;BME280;46155;52.364;6.580;2023-05-10T08:54:03;100748.97;;;13.63;100.00
60307;BME280;46155;52.364;6.580;2023-05-10T08:56:29;100743.91;;;13.68;100.00
60307;BME280;46155;52.364;6.580;2023-05-10T08:58:54;100735.88;;;13.65;100.00
60307;BME280;46155;52.364;6.580;2023-05-10T09:01:21;100751.38;;;13.76;100.00
60307;BME280;46155;52.364;6.580;2023-05-10T09:03:46;100751.59;;;13.81;100.00
60307;BME280;46155;52.364;6.580;2023-05-10T09:06:13;100754.31;;;13.83;100.00
60307;BME280;46155;52.364;6.580;2023-05-10T09:08:40;100753.63;;;13.87;100.00
60307;BME280;46155;52.364;6.580;2023-05-10T09:11:07;100753.63;;;13.87;100.00
60307;BME280;46155;52.364;6.580;2023-05-10T09:13:34;100765.00;;;13.86;100.00
60307;BME280;46155;52.364;6.580;2023-05-10T09:16:00;100764.31;;;13.90;100.00
60307;BME280;46155;52.364;6.580;2023-05-10T09:18:26;100771.34;;;13.89;100.00
60307;BME280;46155;52.364;6.580;2023-05-10T09:20:51;100768.69;;;13.89;100.00
60307;BME280;46155;52.364;6.580;2023-05-10T09:23:16;100772.16;;;13.88;100.00
60307;BME280;46155;52.364;6.580;2023-05-10T09:25:42;100769.38;;;13.85;100.00
60307;BME280;46155;52.364;6.580;2023-05-10T09:28:08;100770.97;;;13.82;100.00
60307;BME280;46155;52.364;6.580;2023-05-10T09:30:35;100774.13;;;13.74;100.00
60307;BME280;46155;52.364;6.580;2023-05-10T09:33:01;100779.88;;;13.84;100.00
60307;BME280;46155;52.364;6.580;2023-05-10T09:35:28;100779.47;;;13.94;100.00
60307;BME280;46155;52.364;6.580;2023-05-10T09:37:55;100777.72;;;13.94;100.00
60307;BME280;46155;52.364;6.580;2023-05-10T09:40:24;100786.28;;;14.08;100.00
60307;BME280;46155;52.364;6.580;2023-05-10T09:42:58;100788.91;;;14.08;100.00
60307;BME280;46155;52.364;6.580;2023-05-10T09:45:25;100786.41;;;14.11;100.00
60307;BME280;46155;52.364;6.580;2023-05-10T09:47:51;100789.19;;;14.15;100.00
60307;BME280;46155;52.364;6.580;2023-05-10T09:50:16;100792.13;;;14.21;100.00
60307;BME280;46155;52.364;6.580;2023-05-10T09:52:59;100792.25;;;14.24;100.00
60307;BME280;46155;52.364;6.580;2023-05-10T09:58:02;100796.28;;;14.35;100.00
60307;BME280;46155;52.364;6.580;2023-05-10T10:00:28;100799.38;;;14.44;100.00
60307;BME280;46155;52.364;6.580;2023-05-10T10:02:58;100798.75;;;14.50;100.00
60307;BME280;46155;52.364;6.580;2023-05-10T10:05:34;100800.59;;;14.53;100.00
60307;BME280;46155;52.364;6.580;2023-05-10T10:08:03;100806.50;;;14.47;100.00
60307;BME280;46155;52.364;6.580;2023-05-10T10:10:30;100808.94;;;14.42;100.00
60307;BME280;46155;52.364;6.580;2023-05-10T10:12:56;100813.81;;;14.33;100.00
60307;BME280;46155;52.364;6.580;2023-05-10T10:15:22;100811.00;;;14.30;100.00
60307;BME280;46155;52.364;6.580;2023-05-10T10:17:48;100806.84;;;14.16;100.00
60307;BME280;46155;52.364;6.580;2023-05-10T10:20:14;100808.88;;;14.21;100.00
60307;BME280;46155;52.364;6.580;2023-05-10T10:22:40;100815.75;;;14.18;100.00
60307;BME280;46155;52.364;6.580;2023-05-10T10:25:06;100814.91;;;14.19;100.00
60307;BME280;46155;52.364;6.580;2023-05-10T10:33:08;100825.81;;;14.07;100.00
60307;BME280;46155;52.364;6.580;2023-05-10T10:35:38;100822.28;;;14.06;100.00
60307;BME280;46155;52.364;6.580;2023-05-10T10:38:08;100824.91;;;14.06;100.00
60307;BME280;46155;52.364;6.580;2023-05-10T10:40:34;100825.88;;;14.08;100.00
60307;BME280;46155;52.364;6.580;2023-05-10T10:43:25;100828.66;;;14.11;100.00
60307;BME280;46155;52.364;6.580;2023-05-10T10:46:20;100826.16;;;14.15;100.00
60307;BME280;46155;52.364;6.580;2023-05-10T10:48:51;100824.50;;;14.17;100.00
60307;BME280;46155;52.364;6.580;2023-05-10T10:51:37;100826.31;;;14.18;100.00
60307;BME280;46155;52.364;6.580;2023-05-10T10:54:09;100828.28;;;14.22;100.00
60307;BME280;46155;52.364;6.580;2023-05-10T10:56:35;100825.75;;;14.25;100.00
60307;BME280;46155;52.364;6.580;2023-05-10T10:59:01;100829.66;;;14.33;100.00
60307;BME280;46155;52.364;6.580;2023-05-10T11:01:33;100832.84;;;14.45;100.00
60307;BME280;46155;52.364;6.580;2023-05-10T11:06:32;100828.88;;;14.55;100.00
60307;BME280;46155;52.364;6.580;2023-05-10T11:08:58;100826.88;;;14.50;100.00
60307;BME280;46155;52.364;6.580;2023-05-10T11:11:23;100830.50;;;14.52;100.00
60307;BME280;46155;52.364;6.580;2023-05-10T11:13:49;100837.06;;;14.61;100.00
60307;BME280;46155;52.364;6.580;2023-05-10T11:16:21;100840.56;;;14.60;100.00
60307;BME280;46155;52.364;6.580;2023-05-10T11:19:04;100841.34;;;14.58;100.00
60307;BME280;46155;52.364;6.580;2023-05-10T11:21:30;100847.44;;;14.57;100.00
60307;BME280;46155;52.364;6.580;2023-05-10T11:23:57;100841.47;;;14.61;100.00
60307;BME280;46155;52.364;6.580;2023-05-10T11:26:24;100845.63;;;14.56;100.00
60307;BME280;46155;52.364;6.580;2023-05-10T11:28:52;100844.94;;;14.60;100.00
60307;BME280;46155;52.364;6.580;2023-05-10T11:31:19;100846.34;;;14.52;100.00
60307;BME280;46155;52.364;6.580;2023-05-10T11:36:14;100849.13;;;14.55;100.00
60307;BME280;46155;52.364;6.580;2023-05-10T11:38:39;100856.28;;;14.57;100.00
60307;BME280;46155;52.364;6.580;2023-05-10T11:41:05;100853.41;;;14.53;100.00
60307;BME280;46155;52.364;6.580;2023-05-10T11:43:30;100854.84;;;14.44;100.00
60307;BME280;46155;52.364;6.580;2023-05-10T11:45:56;100854.53;;;14.58;100.00
60307;BME280;46155;52.364;6.580;2023-05-10T11:48:21;100856.28;;;14.57;100.00
60307;BME280;46155;52.364;6.580;2023-05-10T11:50:49;100856.19;;;14.56;100.00
60307;BME280;46155;52.364;6.580;2023-05-10T11:53:14;100862.47;;;14.58;100.00
60307;BME280;46155;52.364;6.580;2023-05-10T11:55:40;100867.88;;;14.61;100.00
60307;BME280;46155;52.364;6.580;2023-05-10T11:58:05;100868.28;;;14.69;100.00
60307;BME280;46155;52.364;6.580;2023-05-10T12:00:31;100865.72;;;14.70;100.00
60307;BME280;46155;52.364;6.580;2023-05-10T12:02:57;100859.72;;;14.74;100.00
60307;BME280;46155;52.364;6.580;2023-05-10T12:05:23;100866.66;;;14.72;100.00
60307;BME280;46155;52.364;6.580;2023-05-10T12:07:49;100869.38;;;14.74;100.00
60307;BME280;46155;52.364;6.580;2023-05-10T12:10:14;100870.44;;;14.77;100.00
60307;BME280;46155;52.364;6.580;2023-05-10T12:12:44;100873.34;;;14.84;100.00
60307;BME280;46155;52.364;6.580;2023-05-10T12:15:11;100867.09;;;14.82;100.00
60307;BME280;46155;52.364;6.580;2023-05-10T12:17:38;100873.47;;;14.87;100.00
60307;BME280;46155;52.364;6.580;2023-05-10T12:20:20;100881.19;;;14.82;100.00
60307;BME280;46155;52.364;6.580;2023-05-10T12:22:51;100885.28;;;14.75;100.00
60307;BME280;46155;52.364;6.580;2023-05-10T12:25:21;100888.06;;;14.78;100.00
60307;BME280;46155;52.364;6.580;2023-05-10T12:27:54;100891.50;;;14.76;100.00
60307;BME280;46155;52.364;6.580;2023-05-10T12:30:25;100886.50;;;14.82;100.00
60307;BME280;46155;52.364;6.580;2023-05-10T12:32:51;100888.44;;;14.86;100.00
60307;BME280;46155;52.364;6.580;2023-05-10T12:35:17;100888.38;;;14.85;100.00
60307;BME280;46155;52.364;6.580;2023-05-10T12:37:47;100891.84;;;14.84;100.00
60307;BME280;46155;52.364;6.580;2023-05-10T12:40:13;100897.13;;;14.84;100.00
60307;BME280;46155;52.364;6.580;2023-05-10T12:42:39;100899.50;;;14.97;100.00
60307;BME280;46155;52.364;6.580;2023-05-10T12:45:05;100894.03;;;14.94;100.00
60307;BME280;46155;52.364;6.580;2023-05-10T12:47:32;100904.63;;;14.94;100.00
60307;BME280;46155;52.364;6.580;2023-05-10T12:49:58;100899.50;;;14.97;100.00
60307;BME280;46155;52.364;6.580;2023-05-10T12:52:24;100904.50;;;14.91;100.00
60307;BME280;46155;52.364;6.580;2023-05-10T12:54:49;100909.78;;;14.91;100.00
60307;BME280;46155;52.364;6.580;2023-05-10T12:57:15;100913.41;;;14.93;100.00
60307;BME280;46155;52.364;6.580;2023-05-10T12:59:40;100917.13;;;14.98;100.00
60307;BME280;46155;52.364;6.580;2023-05-10T13:02:06;100912.34;;;15.09;100.00
60307;BME280;46155;52.364;6.580;2023-05-10T13:04:31;100908.94;;;15.11;100.00
60307;BME280;46155;52.364;6.580;2023-05-10T13:06:57;100917.69;;;15.10;100.00
60307;BME280;46155;52.364;6.580;2023-05-10T13:09:24;100911.44;;;15.08;100.00
60307;BME280;46155;52.364;6.580;2023-05-10T13:11:50;100912.59;;;15.15;100.00
60307;BME280;46155;52.364;6.580;2023-05-10T13:14:16;100918.44;;;15.27;100.00
60307;BME280;46155;52.364;6.580;2023-05-10T13:16:41;100916.97;;;15.34;100.00
60307;BME280;46155;52.364;6.580;2023-05-10T13:19:06;100918.91;;;15.38;100.00
60307;BME280;46155;52.364;6.580;2023-05-10T13:21:32;100918.63;;;15.32;100.00
60307;BME280;46155;52.364;6.580;2023-05-10T13:23:57;100915.16;;;15.33;100.00
60307;BME280;46155;52.364;6.580;2023-05-10T13:26:23;100918.66;;;15.53;100.00
60307;BME280;46155;52.364;6.580;2023-05-10T13:28:48;100911.69;;;15.55;100.00
60307;BME280;46155;52.364;6.580;2023-05-10T13:31:14;100916.63;;;15.47;100.00
60307;BME280;46155;52.364;6.580;2023-05-10T13:33:39;100917.22;;;15.40;100.00
60307;BME280;46155;52.364;6.580;2023-05-10T13:36:06;100915.28;;;15.36;100.00
60307;BME280;46155;52.364;6.580;2023-05-10T13:38:31;100917.81;;;15.33;100.00
60307;BME280;46155;52.364;6.580;2023-05-10T13:40:56;100913.09;;;15.26;100.00
60307;BME280;46155;52.364;6.580;2023-05-10T13:43:22;100921.84;;;15.25;100.00
60307;BME280;46155;52.364;6.580;2023-05-10T13:45:47;100921.28;;;15.32;100.00
60307;BME280;46155;52.364;6.580;2023-05-10T13:48:12;100923.16;;;15.35;100.00
60307;BME280;46155;52.364;6.580;2023-05-10T13:50:38;100926.84;;;15.38;100.00
60307;BME280;46155;52.364;6.580;2023-05-10T13:53:03;100916.97;;;15.34;100.00
60307;BME280;46155;52.364;6.580;2023-05-10T13:55:28;100923.09;;;15.33;100.00
60307;BME280;46155;52.364;6.580;2023-05-10T13:57:54;100924.03;;;15.35;100.00
60307;BME280;46155;52.364;6.580;2023-05-10T14:00:19;100927.13;;;15.25;100.00
60307;BME280;46155;52.364;6.580;2023-05-10T14:02:44;100928.19;;;15.28;100.00
60307;BME280;46155;52.364;6.580;2023-05-10T14:05:10;100928.25;;;15.30;100.00
60307;BME280;46155;52.364;6.580;2023-05-10T14:07:35;100930.47;;;15.21;100.00
60307;BME280;46155;52.364;6.580;2023-05-10T14:10:00;100933.69;;;15.13;100.00
60307;BME280;46155;52.364;6.580;2023-05-10T14:12:26;100929.03;;;15.08;100.00
60307;BME280;46155;52.364;6.580;2023-05-10T14:14:51;100934.06;;;15.02;100.00
60307;BME280;46155;52.364;6.580;2023-05-10T14:17:17;100930.38;;;14.98;100.00
60307;BME280;46155;52.364;6.580;2023-05-10T14:19:42;100932.03;;;14.96;100.00
60307;BME280;46155;52.364;6.580;2023-05-10T14:22:08;100938.34;;;15.00;100.00
60307;BME280;46155;52.364;6.580;2023-05-10T14:24:33;100931.22;;;14.97;100.00
60307;BME280;46155;52.364;6.580;2023-05-10T14:26:59;100926.75;;;14.96;100.00
60307;BME280;46155;52.364;6.580;2023-05-10T14:29:25;100918.34;;;15.05;100.00
60307;BME280;46155;52.364;6.580;2023-05-10T14:31:50;100921.03;;;15.06;100.00
60307;BME280;46155;52.364;6.580;2023-05-10T14:34:16;100926.47;;;15.09;100.00
60307;BME280;46155;52.364;6.580;2023-05-10T14:36:41;100932.72;;;15.11;100.00
60307;BME280;46155;52.364;6.580;2023-05-10T14:39:06;100929.31;;;15.14;100.00
60307;BME280;46155;52.364;6.580;2023-05-10T14:41:31;100929.78;;;15.25;100.00
60307;BME280;46155;52.364;6.580;2023-05-10T14:43:57;100934.13;;;15.23;100.00
60307;BME280;46155;52.364;6.580;2023-05-10T14:46:23;100935.13;;;15.26;100.00
60307;BME280;46155;52.364;6.580;2023-05-10T14:48:48;100936.41;;;15.15;100.00
60307;BME280;46155;52.364;6.580;2023-05-10T14:51:13;100931.75;;;15.09;100.00
60307;BME280;46155;52.364;6.580;2023-05-10T14:53:39;100945.66;;;15.05;100.00
60307;BME280;46155;52.364;6.580;2023-05-10T14:56:04;100941.94;;;15.00;100.00
60307;BME280;46155;52.364;6.580;2023-05-10T14:58:30;100938.28;;;14.98;100.00
60307;BME280;46155;52.364;6.580;2023-05-10T15:00:56;100946.59;;;15.06;100.00
60307;BME280;46155;52.364;6.580;2023-05-10T15:03:22;100951.94;;;15.07;100.00
60307;BME280;46155;52.364;6.580;2023-05-10T15:05:47;100947.22;;;15.00;100.00
60307;BME280;46155;52.364;6.580;2023-05-10T15:08:12;100947.97;;;14.97;100.00
60307;BME280;46155;52.364;6.580;2023-05-10T15:10:38;100948.03;;;14.99;100.00
60307;BME280;46155;52.364;6.580;2023-05-10T15:13:04;100938.44;;;15.01;100.00
60307;BME280;46155;52.364;6.580;2023-05-10T15:15:29;100944.00;;;15.07;100.00
60307;BME280;46155;52.364;6.580;2023-05-10T15:17:55;100946.03;;;15.13;100.00
60307;BME280;46155;52.364;6.580;2023-05-10T15:20:20;100947.75;;;15.12;100.00
60307;BME280;46155;52.364;6.580;2023-05-10T15:22:46;100951.94;;;15.07;100.00
60307;BME280;46155;52.364;6.580;2023-05-10T15:25:12;100947.84;;;14.94;100.00
60307;BME280;46155;52.364;6.580;2023-05-10T15:27:38;100949.00;;;15.01;100.00
60307;BME280;46155;52.364;6.580;2023-05-10T15:30:03;100943.56;;;14.98;100.00
60307;BME280;46155;52.364;6.580;2023-05-10T15:32:29;100952.63;;;15.03;100.00
60307;BME280;46155;52.364;6.580;2023-05-10T15:34:54;100951.81;;;15.04;100.00
60307;BME280;46155;52.364;6.580;2023-05-10T15:37:20;100951.81;;;15.04;100.00
60307;BME280;46155;52.364;6.580;2023-05-10T15:39:46;100947.59;;;15.09;100.00
60307;BME280;46155;52.364;6.580;2023-05-10T15:42:11;100953.75;;;15.08;100.00
60307;BME280;46155;52.364;6.580;2023-05-10T15:44:37;100956.53;;;15.11;100.00
60307;BME280;46155;52.364;6.580;2023-05-10T15:47:04;100963.22;;;15.03;100.00
60307;BME280;46155;52.364;6.580;2023-05-10T15:49:29;100957.03;;;15.03;100.00
60307;BME280;46155;52.364;6.580;2023-05-10T15:51:54;100953.06;;;14.93;100.00